sensor_id;sensor_type;location;lat;lon;timestamp;P1;durP1;ratioP1;P2;durP2;ratioP2
27857;SDS011;16852;51.446;6.528;2023-06-26T00:01:09;4.13;;;3.50;;
27857;SDS011;16852;51.446;6.528;2023-06-26T00:03:10;6.22;;;3.65;;
27857;SDS011;16852;51.446;6.528;2023-06-26T00:05:14;5.65;;;3.65;;
27857;SDS011;16852;51.446;6.528;2023-06-26T00:07:14;5.18;;;4.45;;
27857;SDS011;16852;51.446;6.528;2023-06-26T00:09:15;7.18;;;3.65;;
27857;SDS011;16852;51.446;6.528;2023-06-26T00:11:16;3.90;;;3.50;;
27857;SDS011;16852;51.446;6.528;2023-06-26T00:13:16;3.97;;;3.40;;
27857;SDS011;16852;51.446;6.528;2023-06-26T00:15:17;4.15;;;3.42;;
27857;SDS011;16852;51.446;6.528;2023-06-26T00:17:18;4.00;;;3.50;;
27857;SDS011;16852;51.446;6.528;2023-06-26T00:19:18;4.28;;;3.42;;
27857;SDS011;16852;51.446;6.528;2023-06-26T00:21:19;7.35;;;3.60;;
27857;SDS011;16852;51.446;6.528;2023-06-26T00:23:20;5.88;;;4.22;;
27857;SDS011;16852;51.446;6.528;2023-06-26T00:25:20;4.63;;;3.90;;
27857;SDS011;16852;51.446;6.528;2023-06-26T00:27:21;5.05;;;3.95;;
27857;SDS011;16852;51.446;6.528;2023-06-26T00:29:21;4.15;;;3.75;;
27857;SDS011;16852;51.446;6.528;2023-06-26T00:31:22;5.22;;;4.00;;
27857;SDS011;16852;51.446;6.528;2023-06-26T00:33:22;6.80;;;4.18;;
27857;SDS011;16852;51.446;6.528;2023-06-26T00:35:23;4.78;;;3.83;;
27857;SDS011;16852;51.446;6.528;2023-06-26T00:37:23;4.40;;;3.70;;
27857;SDS011;16852;51.446;6.528;2023-06-26T00:39:24;4.32;;;3.88;;
27857;SDS011;16852;51.446;6.528;2023-06-26T00:41:26;5.43;;;3.85;;
27857;SDS011;16852;51.446;6.528;2023-06-26T00:43:26;4.82;;;4.13;;
27857;SDS011;16852;51.446;6.528;2023-06-26T00:45:27;4.85;;;4.00;;
27857;SDS011;16852;51.446;6.528;2023-06-26T00:47:28;5.38;;;3.67;;
27857;SDS011;16852;51.446;6.528;2023-06-26T00:49:29;5.22;;;4.07;;
27857;SDS011;16852;51.446;6.528;2023-06-26T00:51:30;5.85;;;4.18;;
27857;SDS011;16852;51.446;6.528;2023-06-26T00:53:31;4.68;;;3.78;;
27857;SDS011;16852;51.446;6.528;2023-06-26T00:55:33;4.18;;;3.78;;
27857;SDS011;16852;51.446;6.528;2023-06-26T00:57:33;5.28;;;4.18;;
27857;SDS011;16852;51.446;6.528;2023-06-26T00:59:34;4.65;;;3.97;;
27857;SDS011;16852;51.446;6.528;2023-06-26T01:01:35;5.32;;;3.80;;
27857;SDS011;16852;51.446;6.528;2023-06-26T01:03:36;5.55;;;3.75;;
27857;SDS011;16852;51.446;6.528;2023-06-26T01:05:39;4.97;;;3.85;;
27857;SDS011;16852;51.446;6.528;2023-06-26T01:07:40;4.15;;;3.50;;
27857;SDS011;16852;51.446;6.528;2023-06-26T01:09:41;4.78;;;4.05;;
27857;SDS011;16852;51.446;6.528;2023-06-26T01:11:42;5.47;;;4.43;;
27857;SDS011;16852;51.446;6.528;2023-06-26T01:13:43;4.85;;;3.90;;
27857;SDS011;16852;51.446;6.528;2023-06-26T01:15:46;5.53;;;4.30;;
27857;SDS011;16852;51.446;6.528;2023-06-26T01:17:48;4.57;;;3.88;;
27857;SDS011;16852;51.446;6.528;2023-06-26T01:19:50;5.25;;;3.78;;
27857;SDS011;16852;51.446;6.528;2023-06-26T01:22:15;5.80;;;4.55;;
27857;SDS011;16852;51.446;6.528;2023-06-26T01:24:33;4.95;;;4.00;;
27857;SDS011;16852;51.446;6.528;2023-06-26T01:26:38;5.93;;;4.43;;
27857;SDS011;16852;51.446;6.528;2023-06-26T01:28:42;5.47;;;4.22;;
27857;SDS011;16852;51.446;6.528;2023-06-26T01:30:44;5.93;;;4.97;;
27857;SDS011;16852;51.446;6.528;2023-06-26T01:32:45;5.85;;;4.80;;
27857;SDS011;16852;51.446;6.528;2023-06-26T01:34:46;5.65;;;4.35;;
27857;SDS011;16852;51.446;6.528;2023-06-26T01:36:47;5.63;;;4.72;;
27857;SDS011;16852;51.446;6.528;2023-06-26T01:38:48;6.68;;;4.82;;
27857;SDS011;16852;51.446;6.528;2023-06-26T01:40:49;5.72;;;3.85;;
27857;SDS011;16852;51.446;6.528;2023-06-26T01:42:50;4.90;;;3.83;;
27857;SDS011;16852;51.446;6.528;2023-06-26T01:44:52;6.35;;;4.45;;
27857;SDS011;16852;51.446;6.528;2023-06-26T01:46:59;5.13;;;3.95;;
27857;SDS011;16852;51.446;6.528;2023-06-26T01:49:03;6.85;;;4.35;;
27857;SDS011;16852;51.446;6.528;2023-06-26T01:51:05;5.60;;;4.60;;
27857;SDS011;16852;51.446;6.528;2023-06-26T01:53:11;6.63;;;4.30;;
27857;SDS011;16852;51.446;6.528;2023-06-26T01:57:37;5.32;;;4.38;;
27857;SDS011;16852;51.446;6.528;2023-06-26T01:59:39;5.67;;;4.07;;
27857;SDS011;16852;51.446;6.528;2023-06-26T02:03:42;5.88;;;4.60;;
27857;SDS011;16852;51.446;6.528;2023-06-26T02:05:43;5.75;;;4.18;;
27857;SDS011;16852;51.446;6.528;2023-06-26T02:07:44;5.55;;;4.70;;
27857;SDS011;16852;51.446;6.528;2023-06-26T02:09:45;7.85;;;4.85;;
27857;SDS011;16852;51.446;6.528;2023-06-26T02:11:45;6.78;;;4.82;;
27857;SDS011;16852;51.446;6.528;2023-06-26T02:13:46;5.90;;;4.70;;
27857;SDS011;16852;51.446;6.528;2023-06-26T02:15:46;7.15;;;4.15;;
27857;SDS011;16852;51.446;6.528;2023-06-26T02:17:47;6.32;;;4.85;;
27857;SDS011;16852;51.446;6.528;2023-06-26T02:19:48;6.63;;;4.40;;
27857;SDS011;16852;51.446;6.528;2023-06-26T02:21:48;6.13;;;4.60;;
27857;SDS011;16852;51.446;6.528;2023-06-26T02:23:49;6.57;;;4.68;;
27857;SDS011;16852;51.446;6.528;2023-06-26T02:25:50;5.85;;;4.57;;
27857;SDS011;16852;51.446;6.528;2023-06-26T02:27:50;6.82;;;4.90;;
27857;SDS011;16852;51.446;6.528;2023-06-26T02:29:51;7.05;;;4.55;;
27857;SDS011;16852;51.446;6.528;2023-06-26T02:31:52;6.43;;;5.05;;
27857;SDS011;16852;51.446;6.528;2023-06-26T02:33:52;7.60;;;4.35;;
27857;SDS011;16852;51.446;6.528;2023-06-26T02:35:53;5.35;;;4.20;;
27857;SDS011;16852;51.446;6.528;2023-06-26T02:37:53;7.15;;;4.78;;
27857;SDS011;16852;51.446;6.528;2023-06-26T02:39:54;6.70;;;4.85;;
27857;SDS011;16852;51.446;6.528;2023-06-26T02:41:54;6.38;;;4.50;;
27857;SDS011;16852;51.446;6.528;2023-06-26T02:43:55;5.97;;;4.63;;
27857;SDS011;16852;51.446;6.528;2023-06-26T02:45:55;5.40;;;4.50;;
27857;SDS011;16852;51.446;6.528;2023-06-26T02:47:56;7.15;;;5.10;;
27857;SDS011;16852;51.446;6.528;2023-06-26T02:49:56;7.82;;;4.82;;
27857;SDS011;16852;51.446;6.528;2023-06-26T02:51:57;6.00;;;4.93;;
27857;SDS011;16852;51.446;6.528;2023-06-26T02:53:58;6.90;;;5.78;;
27857;SDS011;16852;51.446;6.528;2023-06-26T02:55:58;8.57;;;5.05;;
27857;SDS011;16852;51.446;6.528;2023-06-26T02:57:59;6.78;;;5.15;;
27857;SDS011;16852;51.446;6.528;2023-06-26T02:59:59;4.88;;;4.00;;
27857;SDS011;16852;51.446;6.528;2023-06-26T03:02:00;6.30;;;4.82;;
27857;SDS011;16852;51.446;6.528;2023-06-26T03:04:01;8.48;;;5.47;;
27857;SDS011;16852;51.446;6.528;2023-06-26T03:06:01;7.38;;;4.93;;
27857;SDS011;16852;51.446;6.528;2023-06-26T03:08:02;5.97;;;4.43;;
27857;SDS011;16852;51.446;6.528;2023-06-26T03:10:03;5.25;;;4.35;;
27857;SDS011;16852;51.446;6.528;2023-06-26T03:12:05;5.05;;;4.07;;
27857;SDS011;16852;51.446;6.528;2023-06-26T03:14:06;5.43;;;4.28;;
27857;SDS011;16852;51.446;6.528;2023-06-26T03:16:06;6.75;;;4.57;;
27857;SDS011;16852;51.446;6.528;2023-06-26T03:18:07;6.05;;;4.35;;
27857;SDS011;16852;51.446;6.528;2023-06-26T03:20:09;6.30;;;4.57;;
27857;SDS011;16852;51.446;6.528;2023-06-26T03:22:10;5.55;;;3.95;;
27857;SDS011;16852;51.446;6.528;2023-06-26T03:24:11;5.72;;;4.22;;
27857;SDS011;16852;51.446;6.528;2023-06-26T03:26:11;7.07;;;4.70;;
27857;SDS011;16852;51.446;6.528;2023-06-26T03:28:14;5.30;;;4.03;;
27857;SDS011;16852;51.446;6.528;2023-06-26T03:30:15;6.57;;;4.70;;
27857;SDS011;16852;51.446;6.528;2023-06-26T03:32:15;5.88;;;4.85;;
27857;SDS011;16852;51.446;6.528;2023-06-26T03:34:16;6.07;;;4.68;;
27857;SDS011;16852;51.446;6.528;2023-06-26T03:36:17;6.97;;;4.60;;
27857;SDS011;16852;51.446;6.528;2023-06-26T03:38:17;5.50;;;4.10;;
27857;SDS011;16852;51.446;6.528;2023-06-26T03:40:18;5.72;;;4.50;;
27857;SDS011;16852;51.446;6.528;2023-06-26T03:42:18;5.25;;;3.85;;
27857;SDS011;16852;51.446;6.528;2023-06-26T03:44:19;5.22;;;3.78;;
27857;SDS011;16852;51.446;6.528;2023-06-26T03:46:19;5.85;;;4.43;;
27857;SDS011;16852;51.446;6.528;2023-06-26T03:48:20;5.40;;;4.20;;
27857;SDS011;16852;51.446;6.528;2023-06-26T03:50:21;7.28;;;4.70;;
27857;SDS011;16852;51.446;6.528;2023-06-26T03:52:21;6.72;;;3.92;;
27857;SDS011;16852;51.446;6.528;2023-06-26T03:54:22;7.93;;;4.50;;
27857;SDS011;16852;51.446;6.528;2023-06-26T03:56:22;6.82;;;4.07;;
27857;SDS011;16852;51.446;6.528;2023-06-26T03:58:23;4.95;;;3.75;;
27857;SDS011;16852;51.446;6.528;2023-06-26T04:00:25;7.00;;;4.45;;
27857;SDS011;16852;51.446;6.528;2023-06-26T04:02:25;4.82;;;3.20;;
27857;SDS011;16852;51.446;6.528;2023-06-26T04:04:26;9.43;;;4.28;;
27857;SDS011;16852;51.446;6.528;2023-06-26T04:06:27;6.53;;;3.78;;
27857;SDS011;16852;51.446;6.528;2023-06-26T04:08:27;5.65;;;3.70;;
27857;SDS011;16852;51.446;6.528;2023-06-26T04:10:28;7.13;;;4.38;;
27857;SDS011;16852;51.446;6.528;2023-06-26T04:12:28;5.80;;;4.10;;
27857;SDS011;16852;51.446;6.528;2023-06-26T04:14:29;6.05;;;3.97;;
27857;SDS011;16852;51.446;6.528;2023-06-26T04:16:30;6.65;;;3.67;;
27857;SDS011;16852;51.446;6.528;2023-06-26T04:18:30;5.68;;;3.70;;
27857;SDS011;16852;51.446;6.528;2023-06-26T04:20:31;7.45;;;4.10;;
27857;SDS011;16852;51.446;6.528;2023-06-26T04:22:33;6.25;;;4.00;;
27857;SDS011;16852;51.446;6.528;2023-06-26T04:24:33;4.53;;;3.35;;
27857;SDS011;16852;51.446;6.528;2023-06-26T04:26:34;5.07;;;3.17;;
27857;SDS011;16852;51.446;6.528;2023-06-26T04:28:35;5.32;;;3.75;;
27857;SDS011;16852;51.446;6.528;2023-06-26T04:30:36;4.30;;;3.15;;
27857;SDS011;16852;51.446;6.528;2023-06-26T04:32:38;4.53;;;3.38;;
27857;SDS011;16852;51.446;6.528;2023-06-26T04:34:39;5.10;;;3.50;;
27857;SDS011;16852;51.446;6.528;2023-06-26T04:36:42;7.55;;;4.50;;
27857;SDS011;16852;51.446;6.528;2023-06-26T04:38:47;4.93;;;4.10;;
27857;SDS011;16852;51.446;6.528;2023-06-26T04:40:49;6.93;;;4.53;;
27857;SDS011;16852;51.446;6.528;2023-06-26T04:42:50;5.75;;;4.03;;
27857;SDS011;16852;51.446;6.528;2023-06-26T04:44:50;6.60;;;4.28;;
27857;SDS011;16852;51.446;6.528;2023-06-26T04:46:51;6.22;;;4.40;;
27857;SDS011;16852;51.446;6.528;2023-06-26T04:48:52;7.80;;;3.95;;
27857;SDS011;16852;51.446;6.528;2023-06-26T04:50:53;6.03;;;3.95;;
27857;SDS011;16852;51.446;6.528;2023-06-26T04:52:54;5.85;;;4.03;;
27857;SDS011;16852;51.446;6.528;2023-06-26T04:54:55;6.47;;;3.95;;
27857;SDS011;16852;51.446;6.528;2023-06-26T04:56:56;6.35;;;4.13;;
27857;SDS011;16852;51.446;6.528;2023-06-26T04:58:57;6.03;;;3.70;;
27857;SDS011;16852;51.446;6.528;2023-06-26T05:00:57;7.32;;;4.05;;
27857;SDS011;16852;51.446;6.528;2023-06-26T05:02:58;5.88;;;4.03;;
27857;SDS011;16852;51.446;6.528;2023-06-26T05:05:00;6.85;;;3.40;;
27857;SDS011;16852;51.446;6.528;2023-06-26T05:07:01;6.47;;;4.18;;
27857;SDS011;16852;51.446;6.528;2023-06-26T05:09:02;6.55;;;3.90;;
27857;SDS011;16852;51.446;6.528;2023-06-26T05:11:02;6.82;;;4.35;;
27857;SDS011;16852;51.446;6.528;2023-06-26T05:13:03;8.25;;;4.28;;
27857;SDS011;16852;51.446;6.528;2023-06-26T05:15:04;8.45;;;4.30;;
27857;SDS011;16852;51.446;6.528;2023-06-26T05:17:04;7.20;;;4.22;;
27857;SDS011;16852;51.446;6.528;2023-06-26T05:19:05;8.27;;;3.97;;
27857;SDS011;16852;51.446;6.528;2023-06-26T05:21:06;5.38;;;3.25;;
27857;SDS011;16852;51.446;6.528;2023-06-26T05:23:06;5.50;;;3.20;;
27857;SDS011;16852;51.446;6.528;2023-06-26T05:25:08;6.47;;;3.40;;
27857;SDS011;16852;51.446;6.528;2023-06-26T05:27:10;6.85;;;3.95;;
27857;SDS011;16852;51.446;6.528;2023-06-26T05:29:19;5.97;;;3.53;;
27857;SDS011;16852;51.446;6.528;2023-06-26T05:31:20;7.97;;;3.83;;
27857;SDS011;16852;51.446;6.528;2023-06-26T05:33:21;7.60;;;4.07;;
27857;SDS011;16852;51.446;6.528;2023-06-26T05:35:24;5.80;;;3.60;;
27857;SDS011;16852;51.446;6.528;2023-06-26T05:37:27;9.15;;;4.00;;
27857;SDS011;16852;51.446;6.528;2023-06-26T05:39:29;6.85;;;3.95;;
27857;SDS011;16852;51.446;6.528;2023-06-26T05:41:30;7.68;;;4.25;;
27857;SDS011;16852;51.446;6.528;2023-06-26T05:43:31;7.43;;;3.90;;
27857;SDS011;16852;51.446;6.528;2023-06-26T05:45:32;6.00;;;3.72;;
27857;SDS011;16852;51.446;6.528;2023-06-26T05:47:33;8.85;;;4.25;;
27857;SDS011;16852;51.446;6.528;2023-06-26T05:49:34;6.60;;;4.20;;
27857;SDS011;16852;51.446;6.528;2023-06-26T05:51:35;8.88;;;4.07;;
27857;SDS011;16852;51.446;6.528;2023-06-26T05:53:36;10.70;;;4.60;;
27857;SDS011;16852;51.446;6.528;2023-06-26T05:55:36;10.57;;;4.25;;
27857;SDS011;16852;51.446;6.528;2023-06-26T05:57:37;7.88;;;4.00;;
27857;SDS011;16852;51.446;6.528;2023-06-26T06:01:43;6.40;;;3.83;;
27857;SDS011;16852;51.446;6.528;2023-06-26T06:03:43;10.43;;;3.53;;
27857;SDS011;16852;51.446;6.528;2023-06-26T06:05:44;9.35;;;4.30;;
27857;SDS011;16852;51.446;6.528;2023-06-26T06:07:44;7.93;;;4.13;;
27857;SDS011;16852;51.446;6.528;2023-06-26T06:09:45;11.48;;;4.80;;
27857;SDS011;16852;51.446;6.528;2023-06-26T06:11:45;8.00;;;3.95;;
27857;SDS011;16852;51.446;6.528;2023-06-26T06:13:46;8.70;;;3.63;;
27857;SDS011;16852;51.446;6.528;2023-06-26T06:15:47;6.18;;;3.40;;
27857;SDS011;16852;51.446;6.528;2023-06-26T06:17:48;7.45;;;3.42;;
27857;SDS011;16852;51.446;6.528;2023-06-26T06:19:48;9.32;;;4.75;;
27857;SDS011;16852;51.446;6.528;2023-06-26T06:21:49;6.80;;;3.70;;
27857;SDS011;16852;51.446;6.528;2023-06-26T06:23:49;9.63;;;4.05;;
27857;SDS011;16852;51.446;6.528;2023-06-26T06:25:50;11.00;;;4.63;;
27857;SDS011;16852;51.446;6.528;2023-06-26T06:27:51;7.82;;;3.83;;
27857;SDS011;16852;51.446;6.528;2023-06-26T06:29:51;9.82;;;4.40;;
27857;SDS011;16852;51.446;6.528;2023-06-26T06:31:52;8.85;;;3.80;;
27857;SDS011;16852;51.446;6.528;2023-06-26T06:33:52;7.57;;;3.47;;
27857;SDS011;16852;51.446;6.528;2023-06-26T06:35:53;8.80;;;3.95;;
27857;SDS011;16852;51.446;6.528;2023-06-26T06:37:54;9.25;;;4.15;;
27857;SDS011;16852;51.446;6.528;2023-06-26T06:39:54;9.40;;;4.32;;
27857;SDS011;16852;51.446;6.528;2023-06-26T06:41:55;9.23;;;3.58;;
27857;SDS011;16852;51.446;6.528;2023-06-26T06:43:56;8.15;;;3.58;;
27857;SDS011;16852;51.446;6.528;2023-06-26T06:45:57;10.18;;;3.90;;
27857;SDS011;16852;51.446;6.528;2023-06-26T06:47:58;9.27;;;3.95;;
27857;SDS011;16852;51.446;6.528;2023-06-26T06:49:59;16.85;;;4.47;;
27857;SDS011;16852;51.446;6.528;2023-06-26T06:52:07;12.38;;;4.65;;
27857;SDS011;16852;51.446;6.528;2023-06-26T06:54:08;8.98;;;4.40;;
27857;SDS011;16852;51.446;6.528;2023-06-26T06:56:09;8.52;;;3.83;;
27857;SDS011;16852;51.446;6.528;2023-06-26T06:58:09;10.63;;;4.57;;
27857;SDS011;16852;51.446;6.528;2023-06-26T07:00:11;8.88;;;3.88;;
27857;SDS011;16852;51.446;6.528;2023-06-26T07:02:15;8.23;;;4.38;;
27857;SDS011;16852;51.446;6.528;2023-06-26T07:04:17;11.82;;;4.30;;
27857;SDS011;16852;51.446;6.528;2023-06-26T07:06:17;8.60;;;3.53;;
27857;SDS011;16852;51.446;6.528;2023-06-26T07:08:18;7.47;;;3.60;;
27857;SDS011;16852;51.446;6.528;2023-06-26T07:10:19;6.82;;;3.65;;
27857;SDS011;16852;51.446;6.528;2023-06-26T07:12:19;10.10;;;4.68;;
27857;SDS011;16852;51.446;6.528;2023-06-26T07:14:20;6.90;;;3.63;;
27857;SDS011;16852;51.446;6.528;2023-06-26T07:16:20;8.30;;;4.03;;
27857;SDS011;16852;51.446;6.528;2023-06-26T07:18:21;10.25;;;4.15;;
27857;SDS011;16852;51.446;6.528;2023-06-26T07:20:22;8.15;;;3.40;;
27857;SDS011;16852;51.446;6.528;2023-06-26T07:22:22;8.95;;;4.22;;
27857;SDS011;16852;51.446;6.528;2023-06-26T07:24:23;13.20;;;4.53;;
27857;SDS011;16852;51.446;6.528;2023-06-26T07:26:33;10.15;;;4.30;;
27857;SDS011;16852;51.446;6.528;2023-06-26T07:28:52;13.77;;;4.40;;
27857;SDS011;16852;51.446;6.528;2023-06-26T07:31:12;10.48;;;3.88;;
27857;SDS011;16852;51.446;6.528;2023-06-26T07:33:32;13.63;;;4.10;;
27857;SDS011;16852;51.446;6.528;2023-06-26T07:35:51;10.45;;;3.83;;
27857;SDS011;16852;51.446;6.528;2023-06-26T07:38:10;8.48;;;3.35;;
27857;SDS011;16852;51.446;6.528;2023-06-26T07:40:30;9.57;;;3.92;;
27857;SDS011;16852;51.446;6.528;2023-06-26T07:42:49;11.88;;;3.88;;
27857;SDS011;16852;51.446;6.528;2023-06-26T07:45:09;17.63;;;4.57;;
27857;SDS011;16852;51.446;6.528;2023-06-26T07:47:30;10.25;;;3.47;;
27857;SDS011;16852;51.446;6.528;2023-06-26T07:49:49;13.63;;;4.03;;
27857;SDS011;16852;51.446;6.528;2023-06-26T07:52:09;11.25;;;4.15;;
27857;SDS011;16852;51.446;6.528;2023-06-26T07:54:31;7.63;;;3.23;;
27857;SDS011;16852;51.446;6.528;2023-06-26T07:56:57;9.13;;;3.60;;
27857;SDS011;16852;51.446;6.528;2023-06-26T07:59:18;11.52;;;4.03;;
27857;SDS011;16852;51.446;6.528;2023-06-26T08:01:38;10.70;;;3.65;;
27857;SDS011;16852;51.446;6.528;2023-06-26T08:03:57;8.68;;;3.55;;
27857;SDS011;16852;51.446;6.528;2023-06-26T08:06:16;8.00;;;2.88;;
27857;SDS011;16852;51.446;6.528;2023-06-26T08:08:35;11.75;;;4.05;;
27857;SDS011;16852;51.446;6.528;2023-06-26T08:10:54;7.75;;;3.35;;
27857;SDS011;16852;51.446;6.528;2023-06-26T08:13:13;8.32;;;3.50;;
27857;SDS011;16852;51.446;6.528;2023-06-26T08:15:32;4.32;;;2.47;;
27857;SDS011;16852;51.446;6.528;2023-06-26T08:17:52;10.00;;;3.40;;
27857;SDS011;16852;51.446;6.528;2023-06-26T08:20:11;6.97;;;3.20;;
27857;SDS011;16852;51.446;6.528;2023-06-26T08:22:30;14.00;;;3.67;;
27857;SDS011;16852;51.446;6.528;2023-06-26T08:24:50;10.23;;;3.65;;
27857;SDS011;16852;51.446;6.528;2023-06-26T08:27:09;6.65;;;3.38;;
27857;SDS011;16852;51.446;6.528;2023-06-26T08:29:28;9.63;;;3.63;;
27857;SDS011;16852;51.446;6.528;2023-06-26T08:31:47;8.77;;;2.95;;
27857;SDS011;16852;51.446;6.528;2023-06-26T08:34:07;7.55;;;3.45;;
27857;SDS011;16852;51.446;6.528;2023-06-26T08:36:26;9.02;;;3.35;;
27857;SDS011;16852;51.446;6.528;2023-06-26T08:38:45;7.63;;;3.00;;
27857;SDS011;16852;51.446;6.528;2023-06-26T08:41:04;10.02;;;3.53;;
27857;SDS011;16852;51.446;6.528;2023-06-26T08:43:24;6.15;;;2.80;;
27857;SDS011;16852;51.446;6.528;2023-06-26T08:45:45;8.05;;;3.03;;
27857;SDS011;16852;51.446;6.528;2023-06-26T08:48:07;14.10;;;3.25;;
27857;SDS011;16852;51.446;6.528;2023-06-26T08:50:27;8.68;;;3.67;;
27857;SDS011;16852;51.446;6.528;2023-06-26T08:55:26;9.23;;;2.70;;
27857;SDS011;16852;51.446;6.528;2023-06-26T08:57:47;6.72;;;3.17;;
27857;SDS011;16852;51.446;6.528;2023-06-26T09:00:06;7.03;;;3.13;;
27857;SDS011;16852;51.446;6.528;2023-06-26T09:02:27;5.45;;;2.67;;
27857;SDS011;16852;51.446;6.528;2023-06-26T09:04:47;7.22;;;3.20;;
27857;SDS011;16852;51.446;6.528;2023-06-26T09:07:07;8.65;;;3.45;;
27857;SDS011;16852;51.446;6.528;2023-06-26T09:09:27;8.55;;;3.30;;
27857;SDS011;16852;51.446;6.528;2023-06-26T09:11:47;4.35;;;2.55;;
27857;SDS011;16852;51.446;6.528;2023-06-26T09:14:06;9.65;;;3.25;;
27857;SDS011;16852;51.446;6.528;2023-06-26T09:16:28;5.03;;;2.38;;
27857;SDS011;16852;51.446;6.528;2023-06-26T09:18:47;6.45;;;2.78;;
27857;SDS011;16852;51.446;6.528;2023-06-26T09:21:07;6.97;;;3.10;;
27857;SDS011;16852;51.446;6.528;2023-06-26T09:23:28;5.93;;;2.30;;
27857;SDS011;16852;51.446;6.528;2023-06-26T09:25:47;5.72;;;2.60;;
27857;SDS011;16852;51.446;6.528;2023-06-26T09:28:06;7.07;;;2.70;;
27857;SDS011;16852;51.446;6.528;2023-06-26T09:30:26;5.53;;;2.60;;
27857;SDS011;16852;51.446;6.528;2023-06-26T09:32:46;6.30;;;2.40;;
27857;SDS011;16852;51.446;6.528;2023-06-26T09:35:05;6.32;;;2.70;;
27857;SDS011;16852;51.446;6.528;2023-06-26T09:37:25;7.43;;;3.78;;
27857;SDS011;16852;51.446;6.528;2023-06-26T09:39:44;5.65;;;2.75;;
27857;SDS011;16852;51.446;6.528;2023-06-26T09:42:04;8.15;;;2.63;;
27857;SDS011;16852;51.446;6.528;2023-06-26T09:44:25;5.35;;;2.00;;
27857;SDS011;16852;51.446;6.528;2023-06-26T09:46:45;7.65;;;2.47;;
27857;SDS011;16852;51.446;6.528;2023-06-26T09:49:08;9.32;;;3.15;;
27857;SDS011;16852;51.446;6.528;2023-06-26T09:51:32;6.05;;;2.55;;
27857;SDS011;16852;51.446;6.528;2023-06-26T09:53:52;4.85;;;2.20;;
27857;SDS011;16852;51.446;6.528;2023-06-26T09:56:15;5.75;;;2.50;;
27857;SDS011;16852;51.446;6.528;2023-06-26T09:58:35;5.63;;;2.95;;
27857;SDS011;16852;51.446;6.528;2023-06-26T10:00:56;11.75;;;2.80;;
27857;SDS011;16852;51.446;6.528;2023-06-26T10:03:15;4.00;;;1.80;;
27857;SDS011;16852;51.446;6.528;2023-06-26T10:05:34;5.22;;;2.85;;
27857;SDS011;16852;51.446;6.528;2023-06-26T10:07:54;7.20;;;2.92;;
27857;SDS011;16852;51.446;6.528;2023-06-26T10:10:14;4.78;;;2.40;;
27857;SDS011;16852;51.446;6.528;2023-06-26T10:12:35;6.35;;;2.15;;
27857;SDS011;16852;51.446;6.528;2023-06-26T10:14:58;3.88;;;2.10;;
27857;SDS011;16852;51.446;6.528;2023-06-26T10:17:19;6.22;;;2.60;;
27857;SDS011;16852;51.446;6.528;2023-06-26T10:19:39;9.85;;;3.17;;
27857;SDS011;16852;51.446;6.528;2023-06-26T10:22:02;3.55;;;2.03;;
27857;SDS011;16852;51.446;6.528;2023-06-26T10:24:23;4.97;;;1.85;;
27857;SDS011;16852;51.446;6.528;2023-06-26T10:26:44;3.90;;;1.85;;
27857;SDS011;16852;51.446;6.528;2023-06-26T10:29:04;7.32;;;1.90;;
27857;SDS011;16852;51.446;6.528;2023-06-26T10:31:25;6.75;;;2.00;;
27857;SDS011;16852;51.446;6.528;2023-06-26T10:33:47;5.07;;;1.60;;
27857;SDS011;16852;51.446;6.528;2023-06-26T10:36:17;2.40;;;1.40;;
27857;SDS011;16852;51.446;6.528;2023-06-26T10:38:48;5.82;;;1.60;;
27857;SDS011;16852;51.446;6.528;2023-06-26T10:41:13;3.35;;;1.23;;
27857;SDS011;16852;51.446;6.528;2023-06-26T10:43:33;4.10;;;1.95;;
27857;SDS011;16852;51.446;6.528;2023-06-26T10:45:52;3.00;;;1.50;;
27857;SDS011;16852;51.446;6.528;2023-06-26T10:48:16;5.07;;;1.55;;
27857;SDS011;16852;51.446;6.528;2023-06-26T10:50:35;2.57;;;1.43;;
27857;SDS011;16852;51.446;6.528;2023-06-26T10:55:28;3.78;;;1.40;;
27857;SDS011;16852;51.446;6.528;2023-06-26T10:57:47;2.45;;;1.30;;
27857;SDS011;16852;51.446;6.528;2023-06-26T11:00:11;5.20;;;1.65;;
27857;SDS011;16852;51.446;6.528;2023-06-26T11:02:47;4.70;;;1.60;;
27857;SDS011;16852;51.446;6.528;2023-06-26T11:05:09;2.17;;;1.20;;
27857;SDS011;16852;51.446;6.528;2023-06-26T11:07:28;1.92;;;1.42;;
27857;SDS011;16852;51.446;6.528;2023-06-26T11:12:35;4.45;;;1.27;;
27857;SDS011;16852;51.446;6.528;2023-06-26T11:14:58;4.22;;;1.23;;
27857;SDS011;16852;51.446;6.528;2023-06-26T11:17:18;3.33;;;1.48;;
27857;SDS011;16852;51.446;6.528;2023-06-26T11:19:37;5.30;;;1.45;;
27857;SDS011;16852;51.446;6.528;2023-06-26T11:22:02;3.92;;;1.15;;
27857;SDS011;16852;51.446;6.528;2023-06-26T11:24:22;2.85;;;1.20;;
27857;SDS011;16852;51.446;6.528;2023-06-26T11:26:43;5.57;;;1.15;;
27857;SDS011;16852;51.446;6.528;2023-06-26T11:29:03;2.22;;;1.08;;
27857;SDS011;16852;51.446;6.528;2023-06-26T11:33:51;3.80;;;1.15;;
27857;SDS011;16852;51.446;6.528;2023-06-26T11:36:11;4.60;;;1.10;;
27857;SDS011;16852;51.446;6.528;2023-06-26T11:38:36;1.85;;;0.93;;
27857;SDS011;16852;51.446;6.528;2023-06-26T11:40:56;2.80;;;1.00;;
27857;SDS011;16852;51.446;6.528;2023-06-26T11:43:16;2.45;;;1.10;;
27857;SDS011;16852;51.446;6.528;2023-06-26T11:45:35;3.67;;;0.95;;
27857;SDS011;16852;51.446;6.528;2023-06-26T11:47:58;1.80;;;0.80;;
27857;SDS011;16852;51.446;6.528;2023-06-26T11:50:18;1.90;;;0.88;;
27857;SDS011;16852;51.446;6.528;2023-06-26T11:52:40;4.03;;;1.10;;
27857;SDS011;16852;51.446;6.528;2023-06-26T11:55:00;6.05;;;1.02;;
27857;SDS011;16852;51.446;6.528;2023-06-26T11:57:19;3.88;;;1.38;;
27857;SDS011;16852;51.446;6.528;2023-06-26T11:59:39;3.67;;;1.10;;
27857;SDS011;16852;51.446;6.528;2023-06-26T12:01:58;2.20;;;0.98;;
27857;SDS011;16852;51.446;6.528;2023-06-26T12:04:18;2.85;;;1.00;;
27857;SDS011;16852;51.446;6.528;2023-06-26T12:06:38;5.55;;;1.20;;
27857;SDS011;16852;51.446;6.528;2023-06-26T12:09:06;3.38;;;1.27;;
27857;SDS011;16852;51.446;6.528;2023-06-26T12:11:28;3.88;;;0.93;;
27857;SDS011;16852;51.446;6.528;2023-06-26T12:13:49;2.13;;;1.00;;
27857;SDS011;16852;51.446;6.528;2023-06-26T12:16:08;6.53;;;1.08;;
27857;SDS011;16852;51.446;6.528;2023-06-26T12:18:35;2.67;;;0.90;;
27857;SDS011;16852;51.446;6.528;2023-06-26T12:20:54;2.92;;;0.90;;
27857;SDS011;16852;51.446;6.528;2023-06-26T12:23:14;4.15;;;1.30;;
27857;SDS011;16852;51.446;6.528;2023-06-26T12:25:33;3.00;;;0.90;;
27857;SDS011;16852;51.446;6.528;2023-06-26T12:27:52;1.58;;;0.77;;
27857;SDS011;16852;51.446;6.528;2023-06-26T12:30:11;2.45;;;0.98;;
27857;SDS011;16852;51.446;6.528;2023-06-26T12:32:31;1.77;;;0.82;;
27857;SDS011;16852;51.446;6.528;2023-06-26T12:34:50;3.38;;;1.13;;
27857;SDS011;16852;51.446;6.528;2023-06-26T12:37:10;4.38;;;1.02;;
27857;SDS011;16852;51.446;6.528;2023-06-26T12:39:30;1.80;;;0.80;;
27857;SDS011;16852;51.446;6.528;2023-06-26T12:44:33;2.17;;;1.02;;
27857;SDS011;16852;51.446;6.528;2023-06-26T12:47:01;2.13;;;1.00;;
27857;SDS011;16852;51.446;6.528;2023-06-26T12:49:28;2.03;;;1.00;;
27857;SDS011;16852;51.446;6.528;2023-06-26T12:51:58;2.10;;;1.10;;
27857;SDS011;16852;51.446;6.528;2023-06-26T12:54:18;3.00;;;1.30;;
27857;SDS011;16852;51.446;6.528;2023-06-26T12:56:38;3.20;;;1.33;;
27857;SDS011;16852;51.446;6.528;2023-06-26T12:58:58;3.88;;;1.38;;
27857;SDS011;16852;51.446;6.528;2023-06-26T13:01:17;3.35;;;0.90;;
27857;SDS011;16852;51.446;6.528;2023-06-26T13:03:38;2.58;;;1.15;;
27857;SDS011;16852;51.446;6.528;2023-06-26T13:05:58;4.57;;;1.20;;
27857;SDS011;16852;51.446;6.528;2023-06-26T13:08:18;3.88;;;1.02;;
27857;SDS011;16852;51.446;6.528;2023-06-26T13:10:37;3.08;;;1.27;;
27857;SDS011;16852;51.446;6.528;2023-06-26T13:12:58;2.03;;;0.80;;
27857;SDS011;16852;51.446;6.528;2023-06-26T13:15:17;3.00;;;1.15;;